Time;durP1;ratioP1;P1;durP2;ratioP2;P2;SDS_P1;SDS_P2;PMS_P1;PMS_P2;Temp;Humidity;BMP_temperature;BMP_pressure;BME280_temperature;BME280_humidity;BME280_pressure;Samples;Min_cycle;Max_cycle;Signal;HPM_P1;HPM_P2
2022/04/21 00:01:07;;;;;;;0.40;0.30;;;7.90;57.00;;;;;;5119304;27;20257;-84
2022/04/21 00:03:35;;;;;;;0.55;0.30;;;7.70;57.60;;;;;;5109857;28;20214;-84
2022/04/21 00:06:03;;;;;;;0.40;0.30;;;7.50;58.50;;;;;;5113608;27;20261;-84
2022/04/21 00:08:30;;;;;;;0.85;0.65;;;7.40;58.70;;;;;;5131512;27;20374;-84
2022/04/21 00:10:58;;;;;;;0.30;0.20;;;7.30;59.00;;;;;;5130187;27;20263;-84
2022/04/21 00:13:26;;;;;;;0.32;0.32;;;7.10;59.20;;;;;;5132320;27;20191;-84
2022/04/21 00:15:54;;;;;;;0.55;0.30;;;7.00;59.60;;;;;;5126164;27;20199;-84
2022/04/21 00:18:21;;;;;;;0.85;0.85;;;7.00;60.00;;;;;;5130220;27;20203;-84
2022/04/21 00:20:50;;;;;;;0.30;0.28;;;6.70;59.70;;;;;;5115236;27;20219;-84
2022/04/21 00:23:26;;;;;;;0.57;0.40;;;6.90;60.30;;;;;;5116930;28;20321;-84
2022/04/21 00:25:55;;;;;;;0.40;0.30;;;7.00;60.60;;;;;;5111232;28;20243;-84
2022/04/21 00:28:23;;;;;;;0.40;0.20;;;6.90;61.30;;;;;;5111151;28;20670;-83
2022/04/21 00:30:51;;;;;;;1.10;0.30;;;6.60;66.00;;;;;;5113961;28;21356;-85
2022/04/21 00:33:19;;;;;;;0.43;0.43;;;6.80;62.20;;;;;;5118956;27;20561;-84
2022/04/21 00:35:46;;;;;;;0.30;0.20;;;6.90;61.60;;;;;;5113811;28;20193;-83
2022/04/21 00:38:14;;;;;;;0.43;0.38;;;6.90;61.60;;;;;;5114049;27;20207;-84
2022/04/21 00:40:42;;;;;;;0.40;0.30;;;6.80;62.00;;;;;;5111549;28;20589;-84
2022/04/21 00:43:10;;;;;;;0.30;0.20;;;7.00;76.30;;;;;;5116968;28;20209;-83
2022/04/21 00:45:37;;;;;;;0.30;0.22;;;6.80;74.10;;;;;;5131062;27;20681;-85
2022/04/21 00:48:06;;;;;;;0.40;0.40;;;6.80;79.50;;;;;;5111416;28;20484;-84
2022/04/21 00:50:37;;;;;;;0.30;0.20;;;6.60;61.80;;;;;;5111740;28;20194;-85
2022/04/21 00:53:05;;;;;;;0.50;0.38;;;6.60;61.40;;;;;;5122931;27;20233;-85
2022/04/21 00:55:34;;;;;;;0.30;0.22;;;7.10;72.30;;;;;;5131334;27;20197;-84
2022/04/21 00:58:02;;;;;;;0.47;0.47;;;6.70;61.20;;;;;;5116980;27;20186;-84
2022/04/21 01:00:29;;;;;;;0.75;0.43;;;6.70;61.10;;;;;;5112423;28;20190;-84
2022/04/21 01:02:57;;;;;;;0.30;0.20;;;6.80;74.60;;;;;;5130135;28;20214;-85
2022/04/21 01:05:30;;;;;;;0.40;0.40;;;6.60;62.80;;;;;;5123138;27;20198;-84
2022/04/21 01:07:58;;;;;;;0.40;0.40;;;6.60;62.20;;;;;;5130396;28;20537;-84
2022/04/21 01:10:27;;;;;;;0.30;0.30;;;6.70;83.80;;;;;;5125317;27;20194;-83
2022/04/21 01:12:58;;;;;;;0.30;0.20;;;6.70;75.90;;;;;;5108418;28;20210;-83
2022/04/21 01:15:27;;;;;;;0.30;0.20;;;6.40;82.70;;;;;;5109477;28;20198;-85
2022/04/21 01:17:55;;;;;;;0.40;0.30;;;6.50;64.30;;;;;;5117720;28;20233;-85
2022/04/21 01:20:24;;;;;;;0.57;0.30;;;6.60;63.40;;;;;;5117473;27;20199;-84
2022/04/21 01:22:53;;;;;;;0.30;0.20;;;6.40;83.50;;;;;;5109559;27;20865;-84
2022/04/21 01:25:21;;;;;;;0.30;0.30;;;6.60;64.60;;;;;;5115334;28;20198;-84
2022/04/21 01:27:51;;;;;;;0.30;0.20;;;6.50;65.30;;;;;;5128731;27;20699;-84
2022/04/21 01:30:18;;;;;;;0.85;0.77;;;6.50;65.90;;;;;;5110234;27;20290;-84
2022/04/21 01:32:48;;;;;;;0.63;0.63;;;6.40;65.60;;;;;;5132884;27;20193;-85
2022/04/21 01:35:15;;;;;;;0.65;0.65;;;6.20;86.60;;;;;;5135578;27;20584;-83
2022/04/21 01:43:29;;;;;;;0.40;0.40;;;6.30;79.10;;;;;;5051260;28;20230;-83
2022/04/21 01:45:56;;;;;;;0.30;0.20;;;6.00;79.80;;;;;;5079693;27;20242;-84
2022/04/21 01:48:24;;;;;;;0.35;0.32;;;6.10;69.40;;;;;;5133832;27;20660;-84
2022/04/21 01:50:50;;;;;;;0.60;0.40;;;6.00;70.10;;;;;;5117303;27;20289;-84
2022/04/21 01:53:19;;;;;;;0.30;0.20;;;6.00;70.50;;;;;;5136297;27;20197;-84
2022/04/21 01:55:46;;;;;;;0.55;0.50;;;6.10;71.00;;;;;;5134558;27;20205;-84
2022/04/21 01:58:13;;;;;;;0.52;0.52;;;5.90;86.40;;;;;;5126101;27;20220;-84
2022/04/21 02:00:40;;;;;;;0.88;0.43;;;6.10;70.20;;;;;;5132550;27;20649;-84
2022/04/21 02:03:07;;;;;;;0.50;0.35;;;6.10;70.90;;;;;;5115787;28;20301;-84
2022/04/21 02:05:34;;;;;;;1.40;0.60;;;6.20;88.10;;;;;;5114611;27;20223;-84
2022/04/21 02:08:02;;;;;;;1.67;1.58;;;6.10;70.80;;;;;;5129581;27;20644;-83
2022/04/21 02:10:31;;;;;;;0.30;0.30;;;5.90;79.30;;;;;;5134105;27;20262;-84
2022/04/21 02:12:58;;;;;;;1.30;0.88;;;6.20;89.30;;;;;;5114376;28;20198;-84
2022/04/21 02:15:25;;;;;;;0.75;0.40;;;5.70;84.30;;;;;;5112174;27;20293;-84
2022/04/21 02:17:52;;;;;;;0.85;0.40;;;6.10;71.00;;;;;;5122262;27;20202;-84
2022/04/21 02:20:20;;;;;;;0.70;0.40;;;6.20;71.00;;;;;;5107048;28;20627;-85
2022/04/21 02:22:48;;;;;;;0.30;0.28;;;6.20;71.70;;;;;;5127714;27;20250;-84
2022/04/21 02:25:16;;;;;;;0.38;0.32;;;6.30;88.60;;;;;;5113564;27;20208;-85
2022/04/21 02:27:47;;;;;;;0.30;0.30;;;6.40;70.90;;;;;;5126640;27;20198;-84
2022/04/21 02:30:16;;;;;;;0.40;0.32;;;6.60;86.50;;;;;;5113881;28;20281;-84
2022/04/21 02:32:43;;;;;;;0.50;0.35;;;6.60;70.50;;;;;;5132126;27;20197;-84
2022/04/21 02:35:11;;;;;;;0.65;0.50;;;6.60;70.40;;;;;;5133128;27;20205;-85
2022/04/21 02:37:40;;;;;;;0.30;0.20;;;8.50;87.10;;;;;;5116798;27;20232;-84
2022/04/21 02:40:08;;;;;;;0.40;0.30;;;5.80;90.10;;;;;;5112806;27;20229;-84
2022/04/21 02:42:38;;;;;;;0.30;0.30;;;6.60;83.50;;;;;;5110177;27;20198;-84
2022/04/21 02:45:08;;;;;;;0.30;0.20;;;6.50;71.50;;;;;;5110809;28;20212;-83
2022/04/21 02:47:36;;;;;;;0.85;0.82;;;6.40;71.70;;;;;;5117459;27;20198;-84
2022/04/21 02:50:03;;;;;;;0.30;0.22;;;6.40;90.30;;;;;;5114183;28;20190;-83
2022/04/21 02:52:30;;;;;;;0.30;0.20;;;6.20;84.20;;;;;;5117462;27;20214;-83
2022/04/21 02:57:43;;;;;;;0.30;0.20;;;6.30;73.30;;;;;;5132221;27;20236;-83
2022/04/21 03:00:13;;;;;;;0.65;0.65;;;6.20;73.30;;;;;;5113102;28;20198;-83
2022/04/21 03:02:40;;;;;;;0.30;0.20;;;6.30;84.10;;;;;;5126167;27;20273;-82
2022/04/21 03:05:08;;;;;;;0.30;0.28;;;6.40;91.50;;;;;;5113012;27;20305;-83
2022/04/21 03:07:35;;;;;;;0.63;0.63;;;6.40;72.30;;;;;;5113775;28;20241;-84
2022/04/21 03:10:02;;;;;;;1.02;0.70;;;6.40;72.50;;;;;;5124050;27;20220;-83
2022/04/21 03:12:29;;;;;;;0.40;0.30;;;7.30;85.20;;;;;;5133753;27;20262;-83
2022/04/21 03:14:57;;;;;;;0.45;0.43;;;6.40;73.00;;;;;;5124073;27;20202;-83
2022/04/21 03:17:25;;;;;;;0.73;0.73;;;6.60;84.20;;;;;;5093257;28;20319;-84
2022/04/21 03:19:52;;;;;;;0.68;0.40;;;6.40;72.70;;;;;;5096554;27;20198;-83
2022/04/21 03:25:05;;;;;;;0.30;0.30;;;6.30;72.90;;;;;;5112004;27;20230;-83
2022/04/21 03:27:33;;;;;;;0.30;0.30;;;6.40;72.70;;;;;;5117837;27;20185;-85
2022/04/21 03:30:00;;;;;;;0.30;0.20;;;6.40;92.30;;;;;;5113846;27;20206;-84
2022/04/21 03:32:29;;;;;;;0.30;0.30;;;6.30;91.60;;;;;;5102829;27;20199;-83
2022/04/21 03:34:56;;;;;;;0.40;0.30;;;6.40;72.80;;;;;;5133500;27;20201;-84
2022/04/21 03:37:23;;;;;;;1.27;0.73;;;6.50;71.50;;;;;;5122337;27;20285;-83
2022/04/21 03:39:51;;;;;;;0.40;0.30;;;6.40;71.90;;;;;;5134679;27;20218;-84
2022/04/21 03:42:21;;;;;;;0.40;0.30;;;6.50;71.80;;;;;;5118864;27;20213;-84
2022/04/21 03:44:48;;;;;;;0.30;0.28;;;6.40;72.50;;;;;;5119001;27;20235;-83
2022/04/21 03:47:15;;;;;;;0.60;0.40;;;6.30;73.30;;;;;;5136248;27;20254;-84
2022/04/21 03:49:43;;;;;;;0.43;0.43;;;6.20;74.40;;;;;;5128240;27;20230;-83
2022/04/21 03:52:11;;;;;;;0.30;0.20;;;6.20;74.80;;;;;;5115820;28;20194;-84
2022/04/21 03:54:38;;;;;;;0.30;0.20;;;6.10;75.60;;;;;;5121954;27;20230;-84
2022/04/21 03:57:06;;;;;;;0.40;0.30;;;6.20;92.50;;;;;;5135271;27;20786;-84
2022/04/21 03:59:33;;;;;;;0.30;0.30;;;5.90;87.80;;;;;;5131769;27;20217;-84
2022/04/21 04:02:02;;;;;;;0.40;0.40;;;5.80;77.20;;;;;;5117422;27;20306;-85
2022/04/21 04:04:30;;;;;;;0.30;0.20;;;5.70;77.50;;;;;;5114424;28;20218;-84
2022/04/21 04:12:32;;;;;;;0.40;0.30;;;5.50;90.60;;;;;;5129938;27;20196;-85
2022/04/21 04:14:59;;;;;;;0.40;0.30;;;5.50;93.90;;;;;;5126822;27;20230;-84
2022/04/21 04:17:26;;;;;;;0.50;0.30;;;6.00;94.90;;;;;;5113399;27;20193;-83
2022/04/21 04:19:53;;;;;;;0.30;0.20;;;5.30;91.00;;;;;;5091912;28;20214;-84
2022/04/21 04:22:21;;;;;;;0.30;0.30;;;5.10;93.40;;;;;;5094382;28;20203;-84
2022/04/21 04:24:53;;;;;;;0.30;0.20;;;5.20;81.50;;;;;;5113938;27;20202;-84
2022/04/21 04:27:20;;;;;;;0.40;0.35;;;5.00;95.70;;;;;;5113017;28;20254;-84
2022/04/21 04:29:47;;;;;;;0.50;0.50;;;5.00;82.80;;;;;;5112759;28;20226;-84
2022/04/21 04:32:15;;;;;;;0.40;0.32;;;5.00;96.60;;;;;;5125418;28;20190;-85
2022/04/21 04:34:42;;;;;;;0.85;0.82;;;5.00;95.80;;;;;;5112853;28;20230;-84
2022/04/21 04:37:08;;;;;;;0.40;0.40;;;5.20;95.50;;;;;;5121401;28;20202;-83
2022/04/21 04:39:37;;;;;;;0.40;0.30;;;5.10;95.00;;;;;;5112109;28;20222;-84
2022/04/21 04:42:21;;;;;;;1.48;1.15;;;5.10;82.10;;;;;;5113505;28;20229;-85
2022/04/21 04:44:49;;;;;;;0.63;0.63;;;5.10;95.80;;;;;;5089385;28;20530;-84
2022/04/21 04:47:15;;;;;;;0.30;0.20;;;5.10;83.30;;;;;;5123575;28;20223;-84
2022/04/21 04:49:43;;;;;;;0.40;0.40;;;5.10;84.60;;;;;;5123929;27;20198;-83
2022/04/21 04:52:10;;;;;;;0.40;0.35;;;5.10;85.20;;;;;;5127044;28;20196;-84
2022/04/21 04:54:38;;;;;;;0.40;0.30;;;5.00;85.30;;;;;;5118116;27;20297;-84
2022/04/21 04:57:05;;;;;;;1.70;1.10;;;5.10;86.10;;;;;;5115076;27;20190;-84
2022/04/21 04:59:32;;;;;;;0.30;0.20;;;5.00;96.40;;;;;;5117842;27;20237;-85
2022/04/21 05:02:01;;;;;;;2.28;2.08;;;5.30;97.20;;;;;;5118111;27;20197;-85
2022/04/21 05:04:28;;;;;;;0.52;0.30;;;5.70;93.30;;;;;;5117217;28;20257;-85
2022/04/21 05:06:57;;;;;;;0.70;0.70;;;5.30;85.70;;;;;;5114799;27;20217;-84
2022/04/21 05:09:25;;;;;;;0.30;0.20;;;5.40;85.90;;;;;;5116053;28;20198;-84
2022/04/21 05:11:55;;;;;;;0.30;0.20;;;5.40;93.70;;;;;;5131825;27;20664;-85
2022/04/21 05:14:23;;;;;;;0.45;0.35;;;5.30;87.20;;;;;;5136223;27;20231;-86
2022/04/21 05:16:51;;;;;;;0.80;0.80;;;4.90;96.90;;;;;;5108449;27;20554;-84
2022/04/21 05:19:19;;;;;;;0.40;0.28;;;5.40;87.20;;;;;;5092227;28;20201;-84
2022/04/21 05:21:48;;;;;;;0.30;0.30;;;5.50;87.10;;;;;;5093715;28;20199;-83
2022/04/21 05:24:15;;;;;;;0.40;0.30;;;6.00;97.10;;;;;;5112153;27;20189;-84
2022/04/21 05:26:45;;;;;;;0.60;0.40;;;5.40;96.30;;;;;;5112203;28;20198;-83
2022/04/21 05:32:09;;;;;;;1.38;0.80;;;5.60;86.90;;;;;;5069716;28;20681;-84
2022/04/21 05:34:36;;;;;;;0.30;0.20;;;5.80;95.60;;;;;;5129676;27;20241;-84
2022/04/21 05:37:04;;;;;;;0.85;0.85;;;6.00;96.60;;;;;;5110364;27;20195;-83
2022/04/21 05:39:31;;;;;;;1.05;0.95;;;5.90;86.40;;;;;;5096196;28;20240;-84
2022/04/21 05:41:59;;;;;;;0.65;0.65;;;6.00;86.10;;;;;;5131904;27;20201;-86
2022/04/21 05:44:29;;;;;;;0.50;0.50;;;6.20;94.60;;;;;;5133132;27;20243;-85
2022/04/21 05:46:57;;;;;;;0.50;0.38;;;6.00;85.00;;;;;;5136131;27;20328;-85
2022/04/21 05:49:24;;;;;;;0.30;0.20;;;6.30;96.20;;;;;;5117117;27;20226;-85
2022/04/21 05:51:53;;;;;;;0.50;0.35;;;6.40;83.80;;;;;;5117194;27;20506;-84
2022/04/21 05:54:21;;;;;;;0.30;0.25;;;6.60;83.10;;;;;;5126009;27;20300;-85
2022/04/21 05:56:48;;;;;;;0.75;0.73;;;6.70;82.70;;;;;;5118150;27;20665;-84
2022/04/21 05:59:15;;;;;;;1.00;1.00;;;6.90;81.30;;;;;;5117885;27;20222;-85
2022/04/21 06:01:43;;;;;;;0.50;0.50;;;7.10;81.20;;;;;;5127658;27;20663;-86
2022/04/21 06:04:10;;;;;;;0.30;0.30;;;7.40;93.00;;;;;;5135509;27;20209;-86
2022/04/21 06:06:39;;;;;;;0.40;0.30;;;7.20;87.60;;;;;;5118153;27;20190;-84
2022/04/21 06:09:05;;;;;;;0.47;0.47;;;8.30;93.20;;;;;;5124207;27;20190;-84
2022/04/21 06:11:35;;;;;;;0.38;0.38;;;7.60;92.10;;;;;;5118658;27;20207;-84
2022/04/21 06:14:01;;;;;;;0.40;0.32;;;7.70;76.90;;;;;;5118593;27;20220;-85
2022/04/21 06:16:28;;;;;;;0.80;0.50;;;7.80;91.80;;;;;;5123744;27;20209;-84
2022/04/21 06:18:56;;;;;;;0.30;0.20;;;7.90;75.40;;;;;;5125794;27;21094;-83
2022/04/21 06:21:23;;;;;;;1.20;0.68;;;8.00;76.70;;;;;;5115571;27;20190;-86
2022/04/21 06:23:50;;;;;;;0.40;0.30;;;8.30;90.60;;;;;;5115029;27;20239;-86
2022/04/21 06:26:17;;;;;;;0.40;0.30;;;8.40;73.10;;;;;;5115076;28;20203;-84
2022/04/21 06:28:44;;;;;;;0.50;0.50;;;8.50;73.30;;;;;;5128719;27;20194;-84
2022/04/21 06:31:11;;;;;;;0.40;0.25;;;8.70;91.70;;;;;;5101472;27;20203;-85
2022/04/21 06:33:38;;;;;;;2.75;0.88;;;8.60;71.10;;;;;;5131950;27;20240;-84
2022/04/21 06:36:07;;;;;;;0.50;0.32;;;8.70;88.80;;;;;;5130920;27;20220;-86
2022/04/21 06:38:34;;;;;;;0.50;0.50;;;9.00;89.10;;;;;;5109388;27;20635;-85
2022/04/21 06:41:02;;;;;;;1.58;0.63;;;9.00;67.60;;;;;;5123379;27;20226;-84
2022/04/21 06:49:12;;;;;;;0.88;0.65;;;9.30;68.30;;;;;;5075155;28;20565;-86
2022/04/21 06:51:42;;;;;;;0.30;0.20;;;9.40;65.80;;;;;;5081304;28;20344;-85
2022/04/21 06:54:09;;;;;;;0.50;0.50;;;9.80;82.30;;;;;;5073505;27;20228;-85
2022/04/21 06:56:36;;;;;;;0.35;0.32;;;9.60;66.80;;;;;;5129301;27;20692;-84
2022/04/21 06:59:05;;;;;;;0.30;0.20;;;9.70;66.70;;;;;;5122071;27;20266;-84
2022/04/21 07:01:32;;;;;;;0.88;0.88;;;9.80;73.90;;;;;;5123314;27;20213;-85
2022/04/21 07:03:59;;;;;;;0.45;0.40;;;9.80;66.50;;;;;;5119942;27;20194;-84
2022/04/21 07:06:26;;;;;;;0.75;0.65;;;;;;;;;;5120601;27;20201;-86
2022/04/21 07:08:55;;;;;;;0.50;0.50;;;10.20;72.00;;;;;;5124911;27;20198;-83
2022/04/21 07:11:22;;;;;;;0.57;0.57;;;10.00;77.00;;;;;;5095075;27;20237;-85
2022/04/21 07:13:49;;;;;;;0.73;0.70;;;10.20;62.60;;;;;;5131609;27;20201;-83
2022/04/21 07:16:16;;;;;;;0.90;0.90;;;10.20;62.50;;;;;;5112781;27;20715;-84
2022/04/21 07:18:42;;;;;;;0.73;0.73;;;10.30;61.50;;;;;;5116054;27;20250;-85
2022/04/21 07:21:10;;;;;;;0.95;0.95;;;10.30;77.70;;;;;;5131343;27;20205;-86
2022/04/21 07:23:39;;;;;;;0.85;0.85;;;10.30;69.00;;;;;;5122369;27;20652;-85
2022/04/21 07:26:07;;;;;;;0.95;0.85;;;10.50;61.40;;;;;;5113408;27;20194;-86
2022/04/21 07:28:34;;;;;;;0.60;0.60;;;10.50;61.10;;;;;;5122767;27;20245;-84
2022/04/21 07:31:01;;;;;;;2.92;1.30;;;10.60;59.80;;;;;;5110167;27;20201;-83
2022/04/21 07:33:28;;;;;;;0.98;0.47;;;10.60;59.60;;;;;;5122290;27;20191;-84
2022/04/21 07:35:55;;;;;;;0.50;0.38;;;10.60;76.30;;;;;;5110087;28;20768;-83
2022/04/21 07:38:22;;;;;;;1.13;1.03;;;10.90;59.30;;;;;;5111098;28;20203;-85
2022/04/21 07:40:53;;;;;;;2.47;1.85;;;10.90;59.10;;;;;;5111410;28;20634;-83
2022/04/21 07:43:22;;;;;;;0.65;0.52;;;11.00;78.40;;;;;;5110815;27;20186;-85
2022/04/21 07:45:50;;;;;;;1.67;1.10;;;11.10;59.00;;;;;;5111726;28;20198;-84
2022/04/21 07:48:17;;;;;;;0.47;0.45;;;11.30;76.20;;;;;;5117549;27;20218;-86
2022/04/21 07:50:44;;;;;;;1.13;1.10;;;11.20;58.70;;;;;;5111437;27;20228;-83
2022/04/21 07:53:15;;;;;;;0.40;0.40;;;11.30;59.10;;;;;;5127699;27;20722;-84
2022/04/21 07:55:44;;;;;;;0.67;0.67;;;11.20;59.70;;;;;;5111400;27;21222;-84
2022/04/21 07:58:11;;;;;;;0.83;0.73;;;11.10;61.20;;;;;;5113123;27;20643;-83
2022/04/21 08:00:40;;;;;;;0.80;0.73;;;11.40;69.80;;;;;;5109724;28;20714;-83
2022/04/21 08:03:08;;;;;;;0.77;0.77;;;11.20;61.20;;;;;;5116777;27;20623;-84
2022/04/21 08:05:35;;;;;;;0.97;0.60;;;11.10;61.00;;;;;;5112514;27;20663;-84
2022/04/21 08:08:03;;;;;;;1.13;1.03;;;10.70;60.80;;;;;;5107788;28;20647;-85
2022/04/21 08:10:30;;;;;;;0.80;0.80;;;10.70;61.90;;;;;;5109151;28;20658;-84
2022/04/21 08:12:59;;;;;;;1.33;0.43;;;10.70;62.30;;;;;;5112530;27;20697;-83
2022/04/21 08:15:27;;;;;;;1.77;0.87;;;11.30;77.70;;;;;;5116377;27;20659;-84
2022/04/21 08:17:57;;;;;;;0.97;0.97;;;11.30;61.00;;;;;;5117547;27;21014;-83
2022/04/21 08:20:26;;;;;;;1.50;1.40;;;11.80;58.20;;;;;;5107602;27;20727;-83
2022/04/21 08:22:53;;;;;;;0.30;0.17;;;11.80;58.50;;;;;;5101433;27;20677;-85
2022/04/21 08:33:36;;;;;;;0.40;0.37;;;12.30;57.60;;;;;;5120576;28;20679;-85
2022/04/21 08:36:03;;;;;;;0.50;0.50;;;12.50;63.70;;;;;;5123157;27;21303;-84
2022/04/21 08:38:31;;;;;;;1.53;1.17;;;12.60;57.50;;;;;;5108204;28;20612;-83
2022/04/21 08:41:00;;;;;;;1.57;1.57;;;12.70;56.70;;;;;;5109199;28;20619;-85
2022/04/21 08:43:29;;;;;;;0.47;0.47;;;12.70;56.50;;;;;;5113500;28;21120;-85
2022/04/21 08:45:57;;;;;;;1.17;0.70;;;12.90;56.50;;;;;;5110581;28;20716;-83
2022/04/21 08:48:25;;;;;;;1.67;0.93;;;13.30;57.00;;;;;;5120494;28;20630;-84
2022/04/21 08:50:54;;;;;;;0.40;0.30;;;13.20;71.10;;;;;;5109695;28;20825;-84
2022/04/21 08:53:23;;;;;;;0.47;0.43;;;13.00;61.60;;;;;;5125752;28;20668;-85
2022/04/21 08:55:51;;;;;;;1.27;0.60;;;13.20;55.50;;;;;;5122345;28;20663;-83
2022/04/21 08:58:19;;;;;;;0.33;0.20;;;13.40;54.90;;;;;;5114294;27;20738;-84
2022/04/21 09:00:45;;;;;;;0.60;0.60;;;13.40;54.80;;;;;;5119030;28;20708;-83
2022/04/21 09:03:14;;;;;;;2.70;1.77;;;13.70;69.20;;;;;;5116084;28;20623;-83
2022/04/21 09:05:41;;;;;;;0.70;0.57;;;13.50;54.50;;;;;;5115023;27;20616;-84
2022/04/21 09:08:21;;;;;;;0.80;0.80;;;13.60;55.20;;;;;;5111854;28;20655;-83
2022/04/21 09:10:48;;;;;;;2.97;1.00;;;13.70;54.50;;;;;;5099316;28;20661;-84
2022/04/21 09:13:15;;;;;;;0.70;0.60;;;13.80;52.80;;;;;;5117681;28;20623;-84
2022/04/21 09:15:43;;;;;;;0.93;0.67;;;14.00;59.20;;;;;;5115374;28;20663;-84
2022/04/21 09:18:13;;;;;;;0.70;0.67;;;13.90;53.40;;;;;;5114345;28;20619;-84
2022/04/21 09:20:40;;;;;;;0.57;0.57;;;14.10;53.60;;;;;;5101461;27;20639;-84
2022/04/21 09:23:10;;;;;;;1.23;1.23;;;14.00;54.10;;;;;;5120782;28;20624;-84
2022/04/21 09:25:47;;;;;;;1.80;1.53;;;14.00;52.60;;;;;;5109207;28;20625;-84
2022/04/21 09:28:22;;;;;;;0.40;0.37;;;14.20;57.60;;;;;;5120685;28;20653;-84
2022/04/21 09:30:51;;;;;;;1.60;1.50;;;14.10;52.40;;;;;;5108519;28;20634;-84
2022/04/21 09:33:26;;;;;;;1.00;0.97;;;14.20;52.40;;;;;;5111287;28;20628;-84
2022/04/21 09:35:54;;;;;;;1.23;1.17;;;14.50;59.40;;;;;;5123581;28;20656;-84
2022/04/21 09:38:21;;;;;;;2.03;1.20;;;14.40;64.20;;;;;;5113306;28;20612;-84
2022/04/21 09:40:49;;;;;;;0.97;0.93;;;14.60;62.70;;;;;;5108856;28;20622;-84
2022/04/21 09:43:27;;;;;;;0.60;0.47;;;14.50;51.70;;;;;;5116069;27;21189;-84
2022/04/21 09:46:08;;;;;;;0.70;0.70;;;14.60;51.60;;;;;;5128777;27;20625;-84
2022/04/21 09:48:35;;;;;;;0.93;0.93;;;14.60;51.90;;;;;;5130316;27;20758;-84
2022/04/21 09:51:10;;;;;;;1.80;1.60;;;14.90;64.10;;;;;;5120973;27;20655;-83
2022/04/21 09:53:50;;;;;;;2.87;2.07;;;14.80;51.30;;;;;;5122528;27;20643;-84
2022/04/21 09:56:19;;;;;;;2.50;2.23;;;15.30;56.70;;;;;;5118142;27;20670;-84
2022/04/21 09:58:47;;;;;;;1.43;0.97;;;14.90;51.90;;;;;;5133233;27;21006;-85
2022/04/21 10:01:14;;;;;;;0.70;0.70;;;14.90;63.10;;;;;;5116755;27;20679;-83
2022/04/21 10:03:43;;;;;;;1.50;1.40;;;15.30;63.20;;;;;;5125746;27;20665;-84
2022/04/21 10:06:10;;;;;;;1.43;1.17;;;15.20;52.10;;;;;;5112552;27;20633;-83
2022/04/21 10:08:41;;;;;;;0.93;0.60;;;15.40;52.00;;;;;;5122058;27;20622;-84
2022/04/21 10:11:09;;;;;;;10.23;2.30;;;15.50;50.30;;;;;;5134159;27;20628;-83
2022/04/21 10:13:37;;;;;;;2.00;0.70;;;15.40;49.90;;;;;;5124578;27;20619;-85
2022/04/21 10:16:07;;;;;;;2.87;1.07;;;15.60;54.70;;;;;;5115386;27;20665;-85
2022/04/21 10:18:34;;;;;;;0.30;0.20;;;15.40;50.90;;;;;;5131135;27;20991;-83
2022/04/21 10:21:03;;;;;;;1.03;0.60;;;15.60;51.50;;;;;;5129318;27;20614;-86
2022/04/21 10:23:31;;;;;;;0.70;0.50;;;15.60;51.90;;;;;;5122746;27;20651;-84
2022/04/21 10:26:00;;;;;;;1.03;1.00;;;15.80;51.70;;;;;;5109669;28;20696;-84
2022/04/21 10:28:42;;;;;;;0.57;0.40;;;15.90;50.40;;;;;;5109810;28;20620;-84
2022/04/21 10:31:31;;;;;;;1.00;1.00;;;16.10;50.10;;;;;;5109938;27;21185;-84
2022/04/21 10:34:00;;;;;;;0.40;0.40;;;16.10;50.70;;;;;;5109966;28;20714;-83
2022/04/21 10:36:37;;;;;;;1.43;0.80;;;16.00;50.10;;;;;;5109407;28;20665;-84
2022/04/21 10:39:30;;;;;;;0.40;0.40;;;16.10;59.30;;;;;;5109098;28;20724;-84
2022/04/21 10:42:19;;;;;;;0.40;0.40;;;16.20;58.90;;;;;;5108451;28;20671;-84
2022/04/21 10:44:49;;;;;;;1.50;1.40;;;16.40;49.60;;;;;;5110311;28;20630;-84
2022/04/21 10:47:36;;;;;;;0.43;0.43;;;16.50;53.20;;;;;;5108971;28;20626;-84
2022/04/21 10:50:19;;;;;;;0.60;0.60;;;16.60;49.70;;;;;;5109922;28;20618;-83
2022/04/21 10:58:53;;;;;;;1.03;0.97;;;16.70;50.70;;;;;;5110500;28;21100;-83
2022/04/21 11:01:31;;;;;;;0.60;0.60;;;16.60;50.80;;;;;;5091367;28;21233;-84
2022/04/21 11:04:19;;;;;;;0.67;0.33;;;17.20;55.40;;;;;;5116432;27;20623;-85
2022/04/21 11:06:47;;;;;;;0.70;0.70;;;17.00;49.70;;;;;;5125304;27;21192;-83
2022/04/21 11:09:40;;;;;;;1.03;0.67;;;16.80;50.00;;;;;;5122800;27;20786;-85
2022/04/21 11:12:08;;;;;;;0.60;0.40;;;16.80;50.30;;;;;;5112428;27;20627;-83
2022/04/21 11:14:37;;;;;;;1.17;0.97;;;16.30;59.80;;;;;;5131663;27;20650;-84
2022/04/21 11:17:06;;;;;;;1.33;1.17;;;16.30;49.80;;;;;;5132769;27;20674;-84
2022/04/21 11:19:40;;;;;;;0.53;0.53;;;16.50;50.40;;;;;;5130783;27;20724;-85
2022/04/21 11:22:08;;;;;;;0.33;0.33;;;16.30;50.90;;;;;;5131055;27;20606;-85
2022/04/21 11:25:04;;;;;;;1.13;0.50;;;16.70;51.60;;;;;;5123018;27;21103;-84
2022/04/21 11:27:34;;;;;;;1.70;0.67;;;17.70;59.90;;;;;;5127523;27;20625;-84
2022/04/21 11:30:03;;;;;;;1.90;1.27;;;17.50;49.50;;;;;;5111877;28;20658;-82
2022/04/21 11:32:32;;;;;;;0.80;0.77;;;17.60;59.00;;;;;;5124669;27;21063;-84
2022/04/21 11:35:00;;;;;;;0.70;0.70;;;17.20;49.30;;;;;;5116856;27;20708;-85
2022/04/21 11:37:45;;;;;;;0.93;0.77;;;17.10;59.60;;;;;;5121665;27;21340;-84
2022/04/21 11:40:20;;;;;;;0.93;0.93;;;16.90;51.40;;;;;;5129449;27;20754;-84
2022/04/21 11:42:49;;;;;;;2.17;1.53;;;17.30;50.50;;;;;;5121619;27;20632;-85
2022/04/21 11:45:19;;;;;;;1.33;1.07;;;17.90;52.80;;;;;;5110280;28;21161;-84
2022/04/21 11:47:48;;;;;;;0.40;0.37;;;18.10;52.70;;;;;;5123969;27;20979;-85
2022/04/21 11:50:26;;;;;;;0.90;0.67;;;17.90;50.20;;;;;;5132194;27;20664;-84
2022/04/21 11:52:54;;;;;;;1.97;1.87;;;17.30;48.40;;;;;;5119600;27;20695;-86
2022/04/21 11:55:23;;;;;;;0.60;0.40;;;16.80;50.20;;;;;;5089422;28;20616;-86
2022/04/21 11:57:51;;;;;;;0.50;0.50;;;;;;;;;;5116102;27;20731;-85
2022/04/21 12:06:27;;;;;;;0.30;0.30;;;17.80;57.30;;;;;;5113206;27;20651;-86
2022/04/21 12:08:44;;;;;;;0.73;0.73;;;18.60;56.20;;;;;;5117289;27;20665;-84
2022/04/21 12:11:13;;;;;;;0.30;0.20;;;17.90;47.50;;;;;;5109534;28;21242;-85
2022/04/21 12:13:41;;;;;;;0.70;0.70;;;18.90;47.40;;;;;;5110683;28;20624;-86
2022/04/21 12:16:36;;;;;;;0.53;0.50;;;19.50;47.30;;;;;;5108990;28;20647;-85
2022/04/21 12:19:28;;;;;;;1.70;1.30;;;18.80;49.10;;;;;;5118547;27;20619;-86
2022/04/21 12:22:00;;;;;;;0.87;0.70;;;18.80;46.20;;;;;;5131642;27;20660;-84
2022/04/21 12:24:36;;;;;;;0.40;0.40;;;18.50;47.70;;;;;;5127991;27;21013;-84
2022/04/21 12:27:05;;;;;;;0.40;0.40;;;18.10;48.20;;;;;;5129404;27;20713;-84
2022/04/21 12:29:45;;;;;;;0.50;0.37;;;18.10;47.90;;;;;;5116554;27;20673;-85
2022/04/21 12:32:12;;;;;;;0.63;0.40;;;18.00;48.20;;;;;;5110803;28;20616;-85
2022/04/21 12:34:41;;;;;;;0.37;0.37;;;17.70;48.50;;;;;;5090059;28;20616;-86
2022/04/21 12:37:09;;;;;;;0.50;0.30;;;17.70;49.20;;;;;;5090251;28;20714;-85
2022/04/21 12:39:37;;;;;;;0.40;0.30;;;18.60;50.10;;;;;;5115874;28;20627;-85
2022/04/21 12:42:04;;;;;;;0.40;0.30;;;19.10;54.90;;;;;;5110570;27;21011;-86
2022/04/21 12:44:32;;;;;;;0.60;0.30;;;18.90;45.70;;;;;;5108590;28;20619;-85
2022/04/21 12:47:05;;;;;;;0.40;0.20;;;18.70;45.80;;;;;;5114529;28;21228;-85
2022/04/21 12:49:54;;;;;;;3.13;0.60;;;18.60;45.30;;;;;;5118403;27;20643;-85
2022/04/21 12:52:36;;;;;;;0.57;0.50;;;19.10;49.00;;;;;;5090953;28;20628;-85
2022/04/21 12:55:06;;;;;;;0.40;0.40;;;18.80;45.70;;;;;;5127644;27;20615;-86
2022/04/21 12:57:33;;;;;;;0.37;0.30;;;;;;;;;;5110367;27;20695;-85
2022/04/21 13:00:01;;;;;;;0.50;0.50;;;19.20;44.70;;;;;;5112271;28;20662;-85
2022/04/21 13:02:28;;;;;;;0.70;0.70;;;20.00;51.30;;;;;;5129319;27;20690;-85
2022/04/21 13:04:57;;;;;;;0.40;0.30;;;20.10;43.90;;;;;;5118317;27;20680;-85
2022/04/21 13:07:25;;;;;;;1.70;0.53;;;20.20;53.10;;;;;;5109371;28;20619;-85
2022/04/21 13:09:52;;;;;;;0.30;0.20;;;20.00;44.70;;;;;;5129429;27;20614;-86
2022/04/21 13:12:19;;;;;;;0.40;0.30;;;20.10;46.20;;;;;;5128773;27;20705;-87
2022/04/21 13:14:46;;;;;;;0.67;0.60;;;;;;;;;;5124625;27;20630;-86
2022/04/21 13:17:13;;;;;;;0.80;0.50;;;;;;;;;;5128794;27;20650;-85
2022/04/21 13:19:40;;;;;;;0.40;0.40;;;19.20;53.80;;;;;;5112942;27;20607;-85
2022/04/21 13:22:08;;;;;;;0.67;0.50;;;18.70;44.30;;;;;;5113155;28;20635;-85
2022/04/21 13:24:35;;;;;;;0.40;0.30;;;19.10;48.40;;;;;;5119351;27;20642;-86
2022/04/21 13:27:03;;;;;;;0.60;0.50;;;;;;;;;;5110806;28;20604;-85
2022/04/21 13:29:30;;;;;;;0.83;0.80;;;;;;;;;;5113545;27;20646;-85
2022/04/21 13:34:42;;;;;;;0.80;0.80;;;24.50;41.80;;;;;;5119208;27;20636;-86
2022/04/21 13:37:11;;;;;;;0.60;0.40;;;24.80;38.00;;;;;;5119372;27;20650;-85
2022/04/21 13:39:40;;;;;;;0.40;0.37;;;23.50;38.30;;;;;;5122557;27;20624;-85
2022/04/21 13:42:07;;;;;;;1.00;0.97;;;23.50;38.80;;;;;;5113704;27;20631;-84
2022/04/21 13:44:34;;;;;;;0.30;0.20;;;23.20;47.60;;;;;;5125231;27;20622;-85
2022/04/21 13:47:02;;;;;;;0.60;0.50;;;22.90;48.60;;;;;;5127031;27;21013;-86
2022/04/21 13:49:30;;;;;;;0.40;0.30;;;22.40;39.60;;;;;;5114008;28;20611;-85
2022/04/21 13:51:57;;;;;;;0.43;0.43;;;;;;;;;;5115500;27;21207;-86
2022/04/21 13:54:25;;;;;;;0.73;0.50;;;20.30;40.70;;;;;;5132422;27;20631;-86